Bradevelt, New Jersey
Current Conditions -  °F | °C
As of 3:55 PM on Friday 21 Nov 2014 (Local Time) from KBLM Reporting Station
Clear Clear  
Wind Chill: 29°   Ceiling: Unl
Heat Index: 36°   Visibility: 10mi
Dew Point:   Wind: 9mph
Humidity: 33%   Direction: 300°WNW
Pressure: 30.38"   Gusts: NA
Location:  40.3194°N, 74.2497°W
Report Text: KBLM 212055Z AUTO 30008KT 10SM CLR 02/M13 A3038 RMK AO1 52024
Loading
Personal Weather Stations






























Interactive Weather Map New forecast layout! Learn more

10-Day Weather Forecast

Advertisements
Track Severe Weather on mobile